Time;durP1;ratioP1;P1;durP2;ratioP2;P2;SDS_P1;SDS_P2;PMS_P1;PMS_P2;Temp;Humidity;BMP_temperature;BMP_pressure;BME280_temperature;BME280_humidity;BME280_pressure;Samples;Min_cycle;Max_cycle;Signal;HPM_P1;HPM_P2
2022/07/14 00:00:57;;;;;;;2.57;1.50;;;;;;;;;;5053890;28;20238;-81
2022/07/14 00:03:26;;;;;;;2.13;1.70;;;;;;;;;;5055722;28;20253;-80
2022/07/14 00:05:55;;;;;;;6.17;1.80;;;;;;;;;;5045756;28;20282;-80
2022/07/14 00:08:24;;;;;;;2.90;1.80;;;;;;;;;;5053902;28;20261;-81
2022/07/14 00:10:52;;;;;;;3.23;1.63;;;;;;;;;;5056724;28;20215;-83
2022/07/14 00:13:20;;;;;;;4.47;1.90;;;;;;;;;;5056342;28;20219;-83
2022/07/14 00:15:48;;;;;;;5.13;1.80;;;;;;;;;;5060438;28;20201;-79
2022/07/14 00:18:16;;;;;;;2.30;1.70;;;;;;;;;;5072190;28;20190;-80
2022/07/14 00:20:43;;;;;;;3.13;1.70;;;;;;;;;;5065829;28;20685;-81
2022/07/14 00:23:14;;;;;;;3.63;1.90;;;;;;;;;;5057690;28;20291;-82
2022/07/14 00:25:42;;;;;;;4.90;1.60;;;;;;;;;;5053763;28;20218;-80
2022/07/14 00:28:10;;;;;;;5.00;1.90;;;;;;;;;;5056430;28;20210;-80
2022/07/14 00:30:37;;;;;;;3.87;1.90;;;;;;;;;;5059464;28;20219;-81
2022/07/14 00:33:04;;;;;;;3.30;1.77;;;;;;;;;;5051916;28;20207;-80
2022/07/14 00:35:32;;;;;;;3.80;1.70;;;;;;;;;;5051813;28;20982;-81
2022/07/14 00:37:59;;;;;;;2.30;1.60;;;;;;;;;;5053704;28;20215;-81
2022/07/14 00:40:28;;;;;;;3.53;1.83;;;;;;;;;;5051845;28;20248;-81
2022/07/14 00:42:56;;;;;;;3.93;1.63;;;;;;;;;;5053277;28;20294;-82
2022/07/14 00:45:26;;;;;;;5.37;1.90;;;;;;;;;;5046617;28;20320;-79
2022/07/14 00:47:57;;;;;;;4.87;1.97;;;;;;;;;;5052823;28;20203;-80
2022/07/14 00:50:27;;;;;;;2.67;1.63;;;;;;;;;;5047683;28;20212;-80
2022/07/14 00:52:54;;;;;;;2.87;2.00;;;;;;;;;;5048234;28;20286;-80
2022/07/14 00:55:22;;;;;;;6.47;2.13;;;;;;;;;;5048758;28;20191;-81
2022/07/14 00:57:52;;;;;;;3.87;2.00;;;;;;;;;;5048160;28;20285;-80
2022/07/14 01:00:19;;;;;;;5.37;2.00;;;;;;;;;;5053895;28;20288;-80
2022/07/14 01:02:47;;;;;;;5.87;2.20;;;;;;;;;;5056665;28;20204;-81
2022/07/14 01:05:14;;;;;;;3.33;2.17;;;;;;;;;;5053598;28;20195;-81
2022/07/14 01:07:42;;;;;;;6.07;2.37;;;;;;;;;;5059387;28;20290;-82
2022/07/14 01:10:10;;;;;;;4.77;2.20;;;;;;;;;;5056434;28;20314;-81
2022/07/14 01:12:38;;;;;;;5.77;2.40;;;;;;;;;;5055575;28;20238;-80
2022/07/14 01:15:07;;;;;;;4.00;2.33;;;;;;;;;;5051512;28;20254;-80
2022/07/14 01:17:35;;;;;;;6.80;2.00;;;;;;;;;;5056997;28;20207;-80
2022/07/14 01:20:02;;;;;;;5.23;2.07;;;;;;;;;;5049145;28;20751;-80
2022/07/14 01:22:30;;;;;;;3.07;2.17;;;;;;;;;;5051583;28;20204;-80
2022/07/14 01:24:58;;;;;;;4.67;1.90;;;;;;;;;;5050637;28;20223;-81
2022/07/14 01:27:27;;;;;;;4.53;2.13;;;;;;;;;;5056406;28;20202;-81
2022/07/14 01:29:55;;;;;;;2.43;2.00;;;;;;;;;;5056315;28;20746;-80
2022/07/14 01:32:22;;;;;;;3.87;2.13;;;;;;;;;;5058402;28;20207;-81
2022/07/14 01:34:49;;;;;;;3.50;2.17;;;;;;;;;;5054537;28;20310;-81
2022/07/14 01:37:16;;;;;;;5.37;2.30;;;;;;;;;;5055281;28;20290;-81
2022/07/14 01:39:47;;;;;;;5.80;2.07;;;;;;;;;;5050587;28;20627;-82
2022/07/14 01:42:15;;;;;;;4.07;1.87;;;;;;;;;;5053913;28;20198;-81
2022/07/14 01:44:42;;;;;;;5.40;2.10;;;;;;;;;;5054534;28;20314;-81
2022/07/14 01:47:10;;;;;;;3.63;2.20;;;;;;;;;;5051073;28;20217;-81
2022/07/14 01:49:39;;;;;;;6.43;2.40;;;;;;;;;;5052397;28;20271;-81
2022/07/14 01:52:07;;;;;;;3.73;2.40;;;;;;;;;;5053878;28;20580;-82
2022/07/14 01:54:37;;;;;;;3.20;1.90;;;;;;;;;;5047054;28;20218;-81
2022/07/14 01:57:07;;;;;;;4.63;2.20;;;;;;;;;;5049170;28;20337;-82
2022/07/14 01:59:34;;;;;;;7.33;2.63;;;;;;;;;;5052441;28;20209;-82
2022/07/14 02:02:01;;;;;;;6.17;2.10;;;;;;;;;;5054263;28;20290;-81
2022/07/14 02:04:29;;;;;;;9.57;2.37;;;;;;;;;;5049878;28;20234;-81
2022/07/14 02:06:57;;;;;;;3.60;2.37;;;;;;;;;;5053835;28;20678;-82
2022/07/14 02:12:10;;;;;;;4.90;2.30;;;;;;;;;;5048691;28;20656;-81
2022/07/14 02:12:19;;;;;;;3.13;1.97;;;;;;;;;;5054250;28;20195;-81
2022/07/14 02:14:46;;;;;;;4.97;2.47;;;;;;;;;;5054274;28;20214;-80
2022/07/14 02:17:13;;;;;;;6.10;2.67;;;;;;;;;;5051291;28;20282;-80
2022/07/14 02:19:42;;;;;;;5.33;2.50;;;;;;;;;;5055835;28;20286;-81
2022/07/14 02:22:10;;;;;;;5.73;2.33;;;;;;;;;;5050509;28;20204;-80
2022/07/14 02:24:37;;;;;;;2.63;2.07;;;;;;;;;;5051413;28;20238;-80
2022/07/14 02:27:06;;;;;;;4.20;2.53;;;;;;;;;;5050157;28;20196;-81
2022/07/14 02:29:36;;;;;;;3.83;2.43;;;;;;;;;;5054936;28;20260;-81
2022/07/14 02:32:03;;;;;;;4.30;2.23;;;;;;;;;;5051226;28;20214;-81
2022/07/14 02:34:31;;;;;;;5.57;2.13;;;;;;;;;;5052083;28;20317;-80
2022/07/14 02:37:00;;;;;;;5.27;2.57;;;;;;;;;;5051466;28;20202;-80
2022/07/14 02:39:27;;;;;;;3.70;2.27;;;;;;;;;;5055151;28;20206;-80
2022/07/14 02:41:56;;;;;;;4.00;2.30;;;;;;;;;;5052437;28;20233;-80
2022/07/14 02:44:24;;;;;;;3.10;2.43;;;;;;;;;;5046548;28;20641;-81
2022/07/14 02:46:52;;;;;;;3.30;2.30;;;;;;;;;;5049090;28;20213;-80
2022/07/14 02:49:20;;;;;;;9.60;2.37;;;;;;;;;;5051661;28;20202;-81
2022/07/14 02:51:48;;;;;;;4.27;2.30;;;;;;;;;;5052945;28;20218;-82
2022/07/14 02:54:15;;;;;;;5.77;2.00;;;;;;;;;;5051490;28;20253;-80
2022/07/14 02:56:42;;;;;;;4.43;2.20;;;;;;;;;;5052615;28;20299;-81
2022/07/14 02:59:09;;;;;;;4.17;2.60;;;;;;;;;;5052302;28;20683;-81
2022/07/14 03:01:38;;;;;;;6.57;2.40;;;;;;;;;;5051958;28;20195;-80
2022/07/14 03:04:07;;;;;;;7.70;3.00;;;;;;;;;;5047856;28;20301;-81
2022/07/14 03:06:35;;;;;;;5.43;2.73;;;;;;;;;;5050303;28;20211;-80
2022/07/14 03:09:03;;;;;;;3.20;2.60;;;;;;;;;;5052130;28;20232;-81
2022/07/14 03:11:30;;;;;;;5.63;2.43;;;;;;;;;;5052465;28;20233;-80
2022/07/14 03:13:57;;;;;;;5.57;2.83;;;;;;;;;;5051350;28;20302;-81
2022/07/14 03:16:25;;;;;;;6.20;2.80;;;;;;;;;;5056966;28;20199;-81
2022/07/14 03:18:52;;;;;;;8.40;2.87;;;;;;;;;;5051713;28;20207;-81
2022/07/14 03:21:28;;;;;;;3.47;2.47;;;;;;;;;;5057356;28;20237;-81
2022/07/14 03:23:57;;;;;;;3.73;2.60;;;;;;;;;;5050007;28;20352;-81
2022/07/14 03:26:25;;;;;;;6.57;2.80;;;;;;;;;;5053932;28;20226;-82
2022/07/14 03:28:52;;;;;;;4.40;2.80;;;;;;;;;;5055065;28;20199;-81
2022/07/14 03:31:21;;;;;;;6.10;2.83;;;;;;;;;;5053277;28;20219;-81
2022/07/14 03:33:48;;;;;;;8.47;3.00;;;;;;;;;;5055191;28;20656;-81
2022/07/14 03:36:16;;;;;;;3.60;2.80;;;;;;;;;;5056787;28;20291;-81
2022/07/14 03:38:45;;;;;;;7.40;2.83;;;;;;;;;;5054433;28;20717;-82
2022/07/14 03:41:13;;;;;;;7.70;2.87;;;;;;;;;;5056370;28;20236;-81
2022/07/14 03:43:40;;;;;;;10.37;2.80;;;;;;;;;;5060645;28;20233;-80
2022/07/14 03:46:08;;;;;;;10.83;3.07;;;;;;;;;;5072440;28;20227;-81
2022/07/14 03:48:36;;;;;;;4.53;2.67;;;;;;;;;;5074712;28;20188;-81
2022/07/14 03:51:03;;;;;;;4.20;2.50;;;;;;;;;;5054442;28;20230;-81
2022/07/14 03:53:32;;;;;;;5.23;2.80;;;;;;;;;;5054111;28;20225;-81
2022/07/14 03:56:01;;;;;;;5.87;2.67;;;;;;;;;;5053490;28;20602;-80
2022/07/14 03:58:29;;;;;;;4.87;2.77;;;;;;;;;;5053123;28;20286;-81
2022/07/14 04:00:56;;;;;;;7.10;2.77;;;;;;;;;;5052025;28;20285;-81
2022/07/14 04:03:23;;;;;;;5.27;3.07;;;;;;;;;;5054326;28;20231;-81
2022/07/14 04:05:50;;;;;;;4.67;2.70;;;;;;;;;;5051326;28;20195;-80
2022/07/14 04:08:18;;;;;;;6.00;3.00;;;;;;;;;;5054483;28;20233;-82
2022/07/14 04:10:45;;;;;;;5.17;3.20;;;;;;;;;;5049624;28;20265;-81
2022/07/14 04:13:13;;;;;;;4.60;2.80;;;;;;;;;;5050704;28;20214;-81
2022/07/14 04:15:43;;;;;;;4.40;2.80;;;;;;;;;;5054843;28;20601;-82
2022/07/14 04:18:10;;;;;;;6.43;3.10;;;;;;;;;;5052977;28;20690;-81
2022/07/14 04:20:38;;;;;;;9.33;2.70;;;;;;;;;;5057631;28;20206;-82
2022/07/14 04:23:05;;;;;;;6.37;3.03;;;;;;;;;;5052606;28;20215;-82
2022/07/14 04:25:32;;;;;;;3.37;2.67;;;;;;;;;;5052028;28;20203;-82
2022/07/14 04:28:00;;;;;;;7.27;3.40;;;;;;;;;;5055974;28;20206;-82
2022/07/14 04:30:29;;;;;;;8.63;3.30;;;;;;;;;;5053825;28;20217;-82
2022/07/14 04:32:56;;;;;;;7.20;3.10;;;;;;;;;;5053036;28;20221;-82
2022/07/14 04:35:24;;;;;;;7.40;3.30;;;;;;;;;;5052875;28;20206;-82
2022/07/14 04:37:51;;;;;;;6.40;3.33;;;;;;;;;;5053735;28;20281;-82
2022/07/14 04:40:21;;;;;;;6.23;3.10;;;;;;;;;;5053481;28;20221;-82
2022/07/14 04:42:48;;;;;;;5.87;3.07;;;;;;;;;;5049160;28;20663;-82
2022/07/14 04:45:17;;;;;;;6.80;3.10;;;;;;;;;;5047450;28;20227;-79
2022/07/14 04:47:47;;;;;;;5.47;3.23;;;;;;;;;;5051846;28;20207;-79
2022/07/14 04:53:02;;;;;;;7.57;3.10;;;;;;;;;;5060746;28;20285;-80
2022/07/14 04:55:32;;;;;;;5.63;2.83;;;;;;;;;;5050623;28;20265;-80
2022/07/14 04:58:00;;;;;;;7.07;3.00;;;;;;;;;;5053052;28;20206;-80
2022/07/14 05:00:27;;;;;;;6.73;3.00;;;;;;;;;;5047740;28;20651;-80
2022/07/14 05:02:56;;;;;;;5.83;3.00;;;;;;;;;;5052837;28;20199;-80
2022/07/14 05:05:46;;;;;;;5.00;3.00;;;;;;;;;;5058989;28;20199;-79
2022/07/14 05:08:16;;;;;;;4.80;2.50;;;;;;;;;;5049673;28;20200;-79
2022/07/14 05:10:44;;;;;;;6.33;2.83;;;;;;;;;;5053042;28;20198;-81
2022/07/14 05:13:11;;;;;;;5.63;3.10;;;;;;;;;;5050369;28;20246;-80
2022/07/14 05:15:41;;;;;;;4.93;3.10;;;;;;;;;;5052820;28;20285;-80
2022/07/14 05:18:10;;;;;;;5.80;2.90;;;;;;;;;;5053387;28;20281;-82
2022/07/14 05:20:44;;;;;;;7.03;3.40;;;;;;;;;;5047132;28;20245;-81
2022/07/14 05:23:18;;;;;;;4.73;2.90;;;;;;;;;;5054053;28;20238;-81
2022/07/14 05:25:45;;;;;;;6.57;3.27;;;;;;;;;;5049168;28;20193;-81
2022/07/14 05:28:12;;;;;;;9.20;3.00;;;;;;;;;;5047783;28;20581;-81
2022/07/14 05:30:46;;;;;;;5.33;2.93;;;;;;;;;;5054119;28;20237;-80
2022/07/14 05:33:15;;;;;;;9.73;3.83;;;;;;;;;;5051987;28;20219;-81
2022/07/14 05:35:42;;;;;;;6.97;3.40;;;;;;;;;;5053362;28;20257;-81
2022/07/14 05:38:09;;;;;;;11.13;3.63;;;;;;;;;;5048983;28;20231;-81
2022/07/14 05:40:36;;;;;;;5.07;3.23;;;;;;;;;;5049090;28;20320;-81
2022/07/14 05:43:03;;;;;;;7.83;3.37;;;;;;;;;;5051458;28;20281;-82
2022/07/14 05:45:31;;;;;;;6.43;3.13;;;;;;;;;;5048968;28;20255;-81
2022/07/14 05:48:00;;;;;;;4.60;2.80;;;;;;;;;;5051380;28;20212;-82
2022/07/14 05:50:29;;;;;;;5.07;3.20;;;;;;;;;;5051231;28;20671;-81
2022/07/14 05:52:57;;;;;;;10.70;3.03;;;;;;;;;;5055600;28;20695;-80
2022/07/14 05:55:24;;;;;;;6.47;3.30;;;;;;;;;;5048607;28;20211;-82
2022/07/14 05:57:51;;;;;;;8.33;3.47;;;;;;;;;;5048254;28;20285;-82
2022/07/14 06:00:19;;;;;;;9.40;2.90;;;;;;;;;;5051817;28;20210;-82
2022/07/14 06:02:47;;;;;;;12.70;3.70;;;;;;;;;;5047895;28;20210;-81
2022/07/14 06:05:14;;;;;;;9.00;3.80;;;;;;;;;;5050592;28;20223;-82
2022/07/14 06:07:59;;;;;;;8.37;3.50;;;;;;;;;;5062034;28;20202;-81
2022/07/14 06:10:28;;;;;;;3.90;3.10;;;;;;;;;;5049610;28;20207;-80
2022/07/14 06:13:01;;;;;;;6.03;3.40;;;;;;;;;;5044988;28;20270;-80
2022/07/14 06:15:28;;;;;;;9.80;3.33;;;;;;;;;;5048595;28;20210;-79
2022/07/14 06:17:55;;;;;;;5.60;3.30;;;;;;;;;;5051251;28;20263;-79
2022/07/14 06:20:22;;;;;;;7.70;3.60;;;;;;;;;;5048592;28;21588;-79
2022/07/14 06:22:53;;;;;;;7.03;3.33;;;;;;;;;;5052348;28;20195;-79
2022/07/14 06:25:20;;;;;;;5.87;3.40;;;;;;;;;;5047653;28;20575;-79
2022/07/14 06:27:49;;;;;;;10.53;4.00;;;;;;;;;;5051340;28;20262;-80
2022/07/14 06:30:16;;;;;;;8.40;3.30;;;;;;;;;;5053967;28;20262;-79
2022/07/14 06:32:43;;;;;;;9.07;3.40;;;;;;;;;;5054725;28;20296;-80
2022/07/14 06:35:11;;;;;;;7.47;2.90;;;;;;;;;;5055480;28;20223;-80
2022/07/14 06:37:41;;;;;;;7.90;3.50;;;;;;;;;;5056849;28;20593;-79
2022/07/14 06:40:11;;;;;;;7.20;3.40;;;;;;;;;;5062761;28;20213;-80
2022/07/14 06:42:39;;;;;;;7.23;3.10;;;;;;;;;;5065041;28;20218;-80
2022/07/14 06:45:10;;;;;;;9.90;3.27;;;;;;;;;;5064651;28;20232;-81
2022/07/14 06:47:37;;;;;;;6.93;3.10;;;;;;;;;;5071623;28;20233;-81
2022/07/14 06:50:05;;;;;;;9.80;3.53;;;;;;;;;;5061621;28;20270;-80
2022/07/14 06:52:32;;;;;;;8.60;3.87;;;;;;;;;;5061011;28;20223;-81
2022/07/14 06:55:01;;;;;;;7.97;3.60;;;;;;;;;;5064347;28;20264;-81
2022/07/14 06:57:28;;;;;;;16.53;3.67;;;;;;;;;;5060505;28;20198;-80
2022/07/14 06:59:56;;;;;;;7.67;3.47;;;;;;;;;;5069703;28;20230;-80
2022/07/14 07:02:29;;;;;;;6.47;3.10;;;;;;;;;;5056047;28;20634;-81
2022/07/14 07:07:44;;;;;;;6.27;3.57;;;;;;;;;;5058622;28;20197;-80
2022/07/14 07:10:12;;;;;;;7.60;3.30;;;;;;;;;;5061326;28;20199;-81
2022/07/14 07:12:41;;;;;;;8.60;3.77;;;;;;;;;;5061587;28;20222;-79
2022/07/14 07:15:11;;;;;;;5.73;3.70;;;;;;;;;;5080838;28;20207;-79
2022/07/14 07:17:43;;;;;;;6.20;3.93;;;;;;;;;;5073643;28;20203;-80
2022/07/14 07:20:12;;;;;;;8.03;4.10;;;;;;;;;;5065188;28;20210;-81
2022/07/14 07:22:41;;;;;;;7.20;3.50;;;;;;;;;;5064854;28;20281;-80
2022/07/14 07:25:12;;;;;;;14.53;4.23;;;;;;;;;;5059423;28;20309;-80
2022/07/14 07:27:41;;;;;;;10.43;4.33;;;;;;;;;;5059040;28;20207;-80
2022/07/14 07:30:10;;;;;;;10.00;4.20;;;;;;;;;;5054675;28;20290;-80
2022/07/14 07:32:40;;;;;;;6.53;4.00;;;;;;;;;;5057112;28;20698;-80
2022/07/14 07:35:12;;;;;;;6.53;4.17;;;;;;;;;;5056835;28;20230;-79
2022/07/14 07:37:42;;;;;;;6.57;3.73;;;;;;;;;;5058913;28;20206;-81
2022/07/14 07:40:11;;;;;;;6.70;4.17;;;;;;;;;;5057070;28;20245;-80
2022/07/14 07:42:39;;;;;;;12.63;3.87;;;;;;;;;;5046659;28;20203;-80
2022/07/14 07:45:07;;;;;;;7.33;3.73;;;;;;;;;;5057506;28;20230;-80
2022/07/14 07:47:38;;;;;;;8.43;3.67;;;;;;;;;;5061242;28;20285;-80
2022/07/14 07:50:12;;;;;;;6.60;3.43;;;;;;;;;;5059729;28;20205;-80
2022/07/14 07:52:39;;;;;;;9.30;3.40;;;;;;;;;;5058887;28;20222;-81
2022/07/14 07:55:17;;;;;;;6.00;3.33;;;;;;;;;;5055729;28;20317;-80
2022/07/14 07:57:44;;;;;;;6.20;3.80;;;;;;;;;;5056544;28;20198;-81
2022/07/14 08:00:14;;;;;;;5.50;3.53;;;;;;;;;;5051638;28;20243;-80
2022/07/14 08:02:46;;;;;;;6.53;3.80;;;;;;;;;;5057149;28;20197;-80
2022/07/14 08:05:17;;;;;;;9.90;3.30;;;;;;;;;;5055004;28;20227;-80
2022/07/14 08:07:45;;;;;;;8.83;3.60;;;;;;;;;;5057698;28;20192;-80
2022/07/14 08:10:14;;;;;;;9.87;3.90;;;;;;;;;;5060879;28;20201;-79
2022/07/14 08:12:41;;;;;;;8.73;3.53;;;;;;;;;;5060444;28;20593;-81
2022/07/14 08:15:13;;;;;;;8.33;3.20;;;;;;;;;;5056522;28;20235;-80
2022/07/14 08:17:47;;;;;;;5.73;3.13;;;;;;;;;;5053930;28;20230;-80
2022/07/14 08:20:16;;;;;;;4.83;3.00;;;;;;;;;;5055104;28;20207;-80
2022/07/14 08:22:43;;;;;;;4.47;2.77;;;;;;;;;;5060430;28;20210;-80
2022/07/14 08:25:10;;;;;;;6.30;2.63;;;;;;;;;;5059609;28;20260;-80
2022/07/14 08:27:37;;;;;;;6.17;2.30;;;;;;;;;;5054750;28;20696;-80
2022/07/14 08:30:07;;;;;;;5.50;2.77;;;;;;;;;;5062911;28;20290;-79
2022/07/14 08:32:35;;;;;;;5.57;2.50;;;;;;;;;;5055196;28;20257;-81
2022/07/14 08:35:03;;;;;;;6.67;2.27;;;;;;;;;;5055814;28;20237;-81
2022/07/14 08:37:33;;;;;;;6.47;2.63;;;;;;;;;;5059397;28;20241;-81
2022/07/14 08:40:01;;;;;;;9.53;2.80;;;;;;;;;;5056984;28;20266;-81
2022/07/14 08:42:35;;;;;;;5.07;2.90;;;;;;;;;;5054836;28;20607;-81
2022/07/14 08:45:10;;;;;;;8.47;3.07;;;;;;;;;;5050948;28;20305;-80
2022/07/14 08:47:38;;;;;;;3.83;2.40;;;;;;;;;;5055484;28;20206;-80
2022/07/14 08:50:07;;;;;;;3.90;2.57;;;;;;;;;;5054566;28;20257;-80
2022/07/14 08:52:36;;;;;;;3.50;2.13;;;;;;;;;;5058342;28;20302;-81
2022/07/14 08:55:06;;;;;;;5.30;2.17;;;;;;;;;;5064933;28;20219;-80
2022/07/14 08:57:33;;;;;;;7.67;1.97;;;;;;;;;;5065968;28;20692;-80
2022/07/14 09:00:00;;;;;;;5.33;1.90;;;;;;;;;;5063776;28;20216;-80
2022/07/14 09:02:31;;;;;;;2.90;1.80;;;;;;;;;;5065481;28;20195;-80
2022/07/14 09:05:05;;;;;;;4.67;2.10;;;;;;;;;;5063597;28;20229;-80
2022/07/14 09:07:33;;;;;;;3.57;1.90;;;;;;;;;;5052173;28;20221;-81
2022/07/14 09:10:20;;;;;;;3.27;1.90;;;;;;;;;;5055815;28;20368;-80
2022/07/14 09:12:48;;;;;;;6.70;2.00;;;;;;;;;;5055575;28;20277;-81
2022/07/14 09:18:04;;;;;;;4.00;1.70;;;;;;;;;;5060088;28;20259;-80
2022/07/14 09:20:32;;;;;;;5.17;2.20;;;;;;;;;;5062986;28;20207;-80
2022/07/14 09:23:00;;;;;;;5.40;2.10;;;;;;;;;;5056775;28;20293;-80
2022/07/14 09:25:28;;;;;;;5.37;1.77;;;;;;;;;;5065739;28;20666;-80
2022/07/14 09:27:59;;;;;;;2.50;1.60;;;;;;;;;;5060137;28;20220;-80
2022/07/14 09:30:27;;;;;;;2.60;1.70;;;;;;;;;;5063733;28;20198;-80
2022/07/14 09:32:56;;;;;;;3.23;1.60;;;;;;;;;;5056402;28;20246;-81
2022/07/14 09:35:25;;;;;;;5.27;1.80;;;;;;;;;;5060360;28;20211;-81
2022/07/14 09:37:57;;;;;;;4.33;1.73;;;;;;;;;;5058129;28;20213;-81
2022/07/14 09:40:27;;;;;;;3.00;1.70;;;;;;;;;;5056503;28;20229;-81
2022/07/14 09:42:58;;;;;;;2.37;1.60;;;;;;;;;;5057810;28;20191;-81
2022/07/14 09:45:29;;;;;;;7.20;2.00;;;;;;;;;;5058246;28;20205;-80
2022/07/14 09:48:02;;;;;;;3.47;1.80;;;;;;;;;;5061516;28;20837;-81
2022/07/14 09:50:44;;;;;;;5.10;2.03;;;;;;;;;;5060270;28;20563;-80
2022/07/14 09:53:13;;;;;;;4.63;1.80;;;;;;;;;;5061631;28;20253;-81
2022/07/14 09:55:43;;;;;;;3.00;1.63;;;;;;;;;;5061503;28;20199;-81
2022/07/14 09:58:13;;;;;;;3.20;1.80;;;;;;;;;;5060878;28;20207;-81
2022/07/14 10:00:43;;;;;;;3.83;1.73;;;;;;;;;;5067116;28;20690;-81
2022/07/14 10:03:11;;;;;;;3.53;2.00;;;;;;;;;;5064683;28;20209;-82
2022/07/14 10:05:40;;;;;;;2.20;1.90;;;;;;;;;;5063338;28;20200;-81
2022/07/14 10:08:08;;;;;;;6.83;2.30;;;;;;;;;;5065335;28;20226;-81
2022/07/14 10:10:37;;;;;;;2.97;1.70;;;;;;;;;;5064814;28;20223;-81
2022/07/14 10:13:06;;;;;;;5.30;2.07;;;;;;;;;;5057766;28;20243;-80
2022/07/14 10:15:34;;;;;;;3.97;1.90;;;;;;;;;;5061104;28;20294;-82
2022/07/14 10:18:05;;;;;;;5.07;1.90;;;;;;;;;;5062713;28;20217;-81
2022/07/14 10:20:38;;;;;;;4.53;1.70;;;;;;;;;;5054133;28;20648;-82
2022/07/14 10:23:06;;;;;;;4.97;1.73;;;;;;;;;;5053433;28;20204;-79
2022/07/14 10:25:37;;;;;;;3.10;2.10;;;;;;;;;;5055281;28;20230;-79
2022/07/14 10:28:04;;;;;;;4.83;1.70;;;;;;;;;;5058260;28;20207;-80
2022/07/14 10:30:37;;;;;;;3.57;1.83;;;;;;;;;;5071434;28;20275;-80
2022/07/14 10:33:12;;;;;;;5.73;2.00;;;;;;;;;;5057809;28;20228;-79
2022/07/14 10:35:57;;;;;;;5.27;2.00;;;;;;;;;;5052642;28;20210;-79
2022/07/14 10:38:35;;;;;;;3.00;2.00;;;;;;;;;;5058173;28;20208;-80
2022/07/14 10:41:06;;;;;;;3.50;1.77;;;;;;;;;;5071784;28;20202;-79
2022/07/14 10:43:43;;;;;;;2.37;1.80;;;;;;;;;;5082164;28;20211;-79
2022/07/14 10:46:10;;;;;;;7.50;1.87;;;;;;;;;;5068129;28;20202;-80
2022/07/14 10:48:39;;;;;;;4.37;2.13;;;;;;;;;;5061016;28;20644;-80
2022/07/14 10:51:21;;;;;;;4.10;1.83;;;;;;;;;;5064308;28;20218;-81
2022/07/14 10:54:03;;;;;;;4.03;2.27;;;;;;;;;;5059662;28;20237;-80
2022/07/14 10:56:30;;;;;;;5.07;2.70;;;;;;;;;;5056004;28;20291;-80
2022/07/14 10:59:16;;;;;;;5.53;2.87;;;;;;;;;;5056344;28;20296;-80
2022/07/14 11:02:01;;;;;;;7.67;3.23;;;;;;;;;;5058500;28;20240;-79
2022/07/14 11:04:43;;;;;;;10.30;3.27;;;;;;;;;;5055166;28;20224;-79
2022/07/14 11:07:32;;;;;;;7.97;3.87;;;;;;;;;;5055230;28;20211;-80
2022/07/14 11:10:00;;;;;;;12.83;4.00;;;;;;;;;;5055630;28;20211;-80
2022/07/14 11:12:28;;;;;;;8.33;3.80;;;;;;;;;;5054941;28;20203;-79
2022/07/14 11:14:55;;;;;;;5.40;3.10;;;;;;;;;;5054279;28;20227;-79
2022/07/14 11:17:40;;;;;;;8.70;3.87;;;;;;;;;;5052339;28;20249;-80
2022/07/14 11:20:13;;;;;;;11.73;4.10;;;;;;;;;;5054351;28;20206;-80
2022/07/14 11:22:42;;;;;;;8.30;3.80;;;;;;;;;;5055962;28;20211;-80
2022/07/14 11:25:25;;;;;;;7.97;3.80;;;;;;;;;;5050781;28;20224;-80
2022/07/14 11:30:35;;;;;;;8.03;3.43;;;;;;;;;;5056773;28;20206;-79
2022/07/14 11:33:04;;;;;;;7.63;3.50;;;;;;;;;;5054569;28;20235;-81
2022/07/14 11:38:27;;;;;;;5.27;3.57;;;;;;;;;;5055444;28;20262;-80
2022/07/14 11:40:58;;;;;;;8.13;3.33;;;;;;;;;;5057330;28;20235;-80
2022/07/14 11:43:45;;;;;;;5.03;3.30;;;;;;;;;;5058958;28;20246;-80
2022/07/14 11:49:00;;;;;;;7.63;3.67;;;;;;;;;;5019223;28;20673;-80
2022/07/14 11:51:30;;;;;;;5.13;2.97;;;;;;;;;;5062187;28;20280;-80
2022/07/14 11:54:00;;;;;;;5.40;2.90;;;;;;;;;;5059599;28;20254;-80
2022/07/14 11:56:52;;;;;;;6.00;2.90;;;;;;;;;;5055159;28;20208;-80
2022/07/14 11:59:31;;;;;;;5.67;2.80;;;;;;;;;;5056489;28;20573;-80
2022/07/14 12:02:08;;;;;;;8.53;3.30;;;;;;;;;;5058968;28;20200;-81
2022/07/14 12:04:36;;;;;;;3.93;2.50;;;;;;;;;;5056696;28;20324;-80
2022/07/14 12:07:05;;;;;;;7.23;3.03;;;;;;;;;;5064457;28;20242;-81
2022/07/14 12:09:36;;;;;;;9.13;3.10;;;;;;;;;;5066332;28;20199;-80
2022/07/14 12:12:09;;;;;;;5.70;2.80;;;;;;;;;;5055396;28;20219;-78
2022/07/14 12:14:45;;;;;;;6.87;2.60;;;;;;;;;;5057615;28;20741;-80
2022/07/14 12:17:24;;;;;;;4.87;2.90;;;;;;;;;;5057866;28;20204;-80
2022/07/14 12:20:02;;;;;;;7.07;2.70;;;;;;;;;;5065633;28;20217;-81
2022/07/14 12:22:31;;;;;;;7.23;2.17;;;;;;;;;;5060328;28;20206;-80
2022/07/14 12:25:01;;;;;;;5.67;2.47;;;;;;;;;;5057565;28;20666;-80
2022/07/14 12:27:32;;;;;;;4.67;2.10;;;;;;;;;;5054831;28;20214;-80
2022/07/14 12:30:01;;;;;;;6.13;2.17;;;;;;;;;;5068393;28;20246;-80
2022/07/14 12:32:29;;;;;;;5.93;2.30;;;;;;;;;;5056286;28;20654;-79
2022/07/14 12:34:59;;;;;;;6.40;2.27;;;;;;;;;;5055202;28;20608;-79
2022/07/14 12:37:29;;;;;;;5.67;2.33;;;;;;;;;;5058336;28;20291;-80
2022/07/14 12:39:56;;;;;;;6.47;2.20;;;;;;;;;;5058818;28;20208;-79
2022/07/14 12:42:24;;;;;;;4.70;2.10;;;;;;;;;;5055207;28;20220;-79
2022/07/14 12:45:14;;;;;;;5.53;1.93;;;;;;;;;;5055201;28;20340;-79
2022/07/14 12:47:55;;;;;;;6.13;2.20;;;;;;;;;;5056737;28;20298;-78
2022/07/14 12:50:24;;;;;;;4.67;2.30;;;;;;;;;;5044502;28;20203;-79
2022/07/14 12:52:52;;;;;;;4.03;2.30;;;;;;;;;;5050937;28;20215;-78
2022/07/14 12:55:36;;;;;;;5.43;2.30;;;;;;;;;;5052330;28;20297;-79
2022/07/14 12:58:09;;;;;;;4.30;2.37;;;;;;;;;;5057865;28;20208;-80
2022/07/14 13:00:37;;;;;;;4.63;2.30;;;;;;;;;;5056072;28;20200;-79
2022/07/14 13:03:19;;;;;;;6.63;2.10;;;;;;;;;;5059934;28;20206;-79
2022/07/14 13:08:34;;;;;;;10.43;2.67;;;;;;;;;;5058880;28;20207;-79
2022/07/14 13:11:03;;;;;;;11.90;2.47;;;;;;;;;;5055412;28;20217;-80
2022/07/14 13:13:33;;;;;;;5.60;1.90;;;;;;;;;;5053151;28;20231;-80
2022/07/14 13:16:31;;;;;;;5.33;2.20;;;;;;;;;;5052743;28;20207;-81
2022/07/14 13:19:10;;;;;;;7.10;2.10;;;;;;;;;;5005851;28;20221;-80
2022/07/14 13:21:50;;;;;;;5.37;2.20;;;;;;;;;;4961215;28;20227;-80
2022/07/14 13:24:19;;;;;;;5.80;2.10;;;;;;;;;;5023494;28;20332;-80
2022/07/14 13:26:46;;;;;;;5.53;2.10;;;;;;;;;;5027442;28;20203;-80
2022/07/14 13:29:13;;;;;;;6.70;2.20;;;;;;;;;;5037014;28;20227;-80
2022/07/14 13:31:41;;;;;;;8.07;2.23;;;;;;;;;;5030412;28;20203;-81
2022/07/14 13:34:17;;;;;;;6.17;2.13;;;;;;;;;;5031361;28;20244;-81
2022/07/14 13:36:44;;;;;;;7.67;2.70;;;;;;;;;;5033029;28;20290;-79
2022/07/14 13:39:11;;;;;;;7.07;2.37;;;;;;;;;;5029337;28;20207;-80
2022/07/14 13:41:39;;;;;;;6.50;2.67;;;;;;;;;;5023613;28;20203;-80
2022/07/14 13:44:07;;;;;;;5.27;2.60;;;;;;;;;;5025174;28;20223;-79
2022/07/14 13:46:35;;;;;;;8.10;2.10;;;;;;;;;;5034094;28;20631;-79
2022/07/14 13:49:03;;;;;;;11.07;2.50;;;;;;;;;;5036839;28;20211;-79
2022/07/14 13:54:17;;;;;;;7.43;2.00;;;;;;;;;;5027889;28;20234;-79
2022/07/14 13:56:45;;;;;;;5.20;2.20;;;;;;;;;;5038178;28;20201;-80
2022/07/14 13:59:13;;;;;;;5.37;2.07;;;;;;;;;;5032662;28;20219;-79
2022/07/14 14:01:41;;;;;;;5.97;2.37;;;;;;;;;;5032283;28;20551;-79
2022/07/14 14:04:08;;;;;;;5.27;2.37;;;;;;;;;;5032049;28;20227;-80
2022/07/14 14:06:41;;;;;;;10.63;2.40;;;;;;;;;;5041131;28;20682;-79
2022/07/14 14:09:10;;;;;;;5.60;2.07;;;;;;;;;;5048901;28;20195;-79
2022/07/14 14:11:38;;;;;;;12.87;2.17;;;;;;;;;;5047809;28;20219;-79
2022/07/14 14:14:06;;;;;;;10.67;2.53;;;;;;;;;;5032281;28;20228;-80
2022/07/14 14:16:33;;;;;;;11.70;2.27;;;;;;;;;;5030580;28;20211;-78
2022/07/14 14:19:01;;;;;;;15.43;2.33;;;;;;;;;;5031771;28;20557;-80
2022/07/14 14:21:29;;;;;;;15.57;2.20;;;;;;;;;;5033224;28;20648;-80
2022/07/14 14:23:57;;;;;;;6.33;2.17;;;;;;;;;;5035091;28;20224;-79
2022/07/14 14:26:25;;;;;;;4.80;2.20;;;;;;;;;;5038711;28;20199;-79
2022/07/14 14:28:52;;;;;;;20.77;2.67;;;;;;;;;;5032913;28;20203;-80
2022/07/14 14:31:19;;;;;;;7.97;2.23;;;;;;;;;;5032130;28;20212;-81
2022/07/14 14:33:47;;;;;;;12.00;2.77;;;;;;;;;;5031036;28;20223;-82
2022/07/14 14:36:14;;;;;;;6.53;2.37;;;;;;;;;;5030736;28;20207;-81
2022/07/14 14:38:41;;;;;;;8.83;1.90;;;;;;;;;;5025675;28;20270;-81
2022/07/14 14:41:10;;;;;;;3.53;1.73;;;;;;;;;;5032207;28;20258;-81
2022/07/14 14:43:38;;;;;;;4.97;1.83;;;;;;;;;;5035373;28;20228;-80
2022/07/14 14:46:05;;;;;;;11.47;2.23;;;;;;;;;;5028176;28;20196;-81
2022/07/14 14:48:32;;;;;;;16.13;2.40;;;;;;;;;;5026041;28;20203;-81
2022/07/14 14:51:00;;;;;;;7.53;2.17;;;;;;;;;;5027905;28;20207;-81
2022/07/14 14:53:27;;;;;;;4.13;1.93;;;;;;;;;;5032013;28;20254;-81
2022/07/14 14:55:55;;;;;;;8.60;2.37;;;;;;;;;;5027774;28;20673;-81
2022/07/14 14:58:24;;;;;;;4.63;2.03;;;;;;;;;;5029646;28;20218;-81
2022/07/14 15:00:51;;;;;;;3.77;2.10;;;;;;;;;;5029660;28;20558;-82
2022/07/14 15:03:18;;;;;;;4.70;1.97;;;;;;;;;;5029943;28;20284;-81
2022/07/14 15:05:46;;;;;;;6.40;1.97;;;;;;;;;;5026954;28;20257;-81
2022/07/14 15:08:13;;;;;;;3.93;1.83;;;;;;;;;;5025692;28;20211;-81
2022/07/14 15:10:40;;;;;;;8.03;1.80;;;;;;;;;;5028275;28;20621;-79
2022/07/14 15:13:08;;;;;;;6.03;1.93;;;;;;;;;;5019486;28;20289;-79
2022/07/14 15:15:36;;;;;;;5.80;2.00;;;;;;;;;;5027381;28;20314;-81
2022/07/14 15:18:04;;;;;;;7.33;1.90;;;;;;;;;;5024197;28;20798;-80
2022/07/14 15:20:32;;;;;;;9.73;1.90;;;;;;;;;;5023474;28;20234;-80